createdAt,value
2022-07-29T00:00:29.004Z,81.02
2022-07-29T00:01:29.003Z,80.92
2022-07-29T00:02:29.037Z,80.72
2022-07-29T00:03:29.641Z,80.62
2022-07-29T00:04:29.048Z,80.82
2022-07-29T00:05:28.990Z,80.92
2022-07-29T00:06:28.938Z,80.92
2022-07-29T00:07:28.939Z,81.02
2022-07-29T00:08:28.924Z,81.23
2022-07-29T00:09:28.900Z,81.32
2022-07-29T00:10:28.891Z,81.43
2022-07-29T00:11:29.869Z,81.57
2022-07-29T00:12:28.874Z,81.77
2022-07-29T00:13:32.500Z,82.17
2022-07-29T00:14:28.856Z,82.38
2022-07-29T00:15:29.089Z,82.48
2022-07-29T00:16:28.895Z,82.48
2022-07-29T00:17:28.890Z,82.78
2022-07-29T00:18:28.794Z,82.98
2022-07-29T00:19:28.798Z,83.18
2022-07-29T00:20:28.774Z,83.39
2022-07-29T00:21:28.770Z,82.98
2022-07-29T00:22:28.795Z,82.48
2022-07-29T00:23:30.642Z,82.07
2022-07-29T00:24:28.783Z,81.77
2022-07-29T00:25:28.718Z,81.67
2022-07-29T00:26:28.713Z,81.57
2022-07-29T00:27:28.717Z,81.26
2022-07-29T00:28:28.685Z,81.16
2022-07-29T00:29:33.981Z,81.26
2022-07-29T00:30:28.677Z,81.67
2022-07-29T00:31:28.719Z,81.97
2022-07-29T00:32:28.656Z,82.31
2022-07-29T00:33:28.648Z,82.62
2022-07-29T00:34:28.612Z,82.62
2022-07-29T00:35:28.654Z,82.58
2022-07-29T00:36:28.604Z,82.38
2022-07-29T00:37:28.585Z,82.28
2022-07-29T00:38:28.572Z,82.28
2022-07-29T00:39:28.565Z,82.48
2022-07-29T00:40:28.548Z,82.72
2022-07-29T00:41:28.598Z,82.92
2022-07-29T00:42:28.528Z,83.23
2022-07-29T00:43:28.523Z,83.43
2022-07-29T00:44:28.503Z,83.53
2022-07-29T00:45:28.501Z,83.53
2022-07-29T00:46:28.603Z,83.43
2022-07-29T00:47:28.522Z,83.43
2022-07-29T00:48:28.494Z,82.98
2022-07-29T00:49:28.577Z,82.58
2022-07-29T00:50:28.434Z,82.72
2022-07-29T00:51:29.348Z,82.78
2022-07-29T00:52:28.425Z,82.92
2022-07-29T00:53:28.447Z,82.98
2022-07-29T00:54:28.406Z,83.12
2022-07-29T00:55:28.387Z,83.33
2022-07-29T00:56:28.364Z,83.53
2022-07-29T00:57:28.377Z,83.73
2022-07-29T00:58:28.347Z,83.73
2022-07-29T00:59:35.013Z,83.83
2022-07-29T01:00:28.491Z,83.94
2022-07-29T01:01:28.373Z,84.04
2022-07-29T01:02:28.407Z,84.24
2022-07-29T01:03:28.296Z,84.44
2022-07-29T01:04:28.285Z,84.55
2022-07-29T01:05:49.940Z,84.99
2022-07-29T01:06:29.012Z,85.19
2022-07-29T01:07:28.259Z,85.50
2022-07-29T01:08:28.242Z,85.70
2022-07-29T01:09:42.143Z,85.90
2022-07-29T01:10:28.216Z,86.10
2022-07-29T01:11:28.244Z,86.31
2022-07-29T01:12:28.838Z,86.41
2022-07-29T01:13:28.209Z,86.51
2022-07-29T01:14:28.170Z,86.55
2022-07-29T01:15:28.156Z,86.25
2022-07-29T01:16:28.199Z,85.94
2022-07-29T01:17:28.171Z,85.64
2022-07-29T01:18:28.126Z,85.53
2022-07-29T01:19:28.127Z,85.24
2022-07-29T01:20:31.497Z,85.24
2022-07-29T01:21:28.090Z,85.03
2022-07-29T01:22:28.098Z,84.83
2022-07-29T01:23:28.202Z,84.83
2022-07-29T01:24:28.053Z,84.83
2022-07-29T01:25:28.314Z,84.83
2022-07-29T01:26:28.051Z,84.83
2022-07-29T01:27:28.026Z,84.93
2022-07-29T01:28:28.042Z,84.93
2022-07-29T01:29:28.995Z,84.83
2022-07-29T01:30:27.983Z,84.83
2022-07-29T01:31:27.981Z,84.83
2022-07-29T01:32:29.338Z,84.93
2022-07-29T01:33:27.987Z,84.97
2022-07-29T01:34:27.934Z,84.93
2022-07-29T01:35:27.986Z,85.24
2022-07-29T01:36:27.911Z,85.33
2022-07-29T01:37:27.921Z,85.53
2022-07-29T01:38:27.905Z,85.74
2022-07-29T01:39:27.906Z,85.94
2022-07-29T01:40:27.883Z,86.15
2022-07-29T01:41:27.913Z,86.25
2022-07-29T01:42:27.847Z,86.55
2022-07-29T01:43:27.838Z,86.80
2022-07-29T01:44:27.827Z,87.10
2022-07-29T01:45:27.815Z,87.20
2022-07-29T01:46:27.849Z,87.30
2022-07-29T01:47:27.859Z,87.40
2022-07-29T01:48:27.784Z,87.10
2022-07-29T01:49:27.932Z,86.59
2022-07-29T01:50:27.754Z,86.25
2022-07-29T01:51:27.801Z,85.84
2022-07-29T01:52:27.734Z,85.64
2022-07-29T01:53:27.756Z,85.33
2022-07-29T01:54:27.717Z,85.24
2022-07-29T01:55:27.701Z,85.24
2022-07-29T01:56:27.685Z,85.24
2022-07-29T01:57:27.685Z,85.24
2022-07-29T01:58:27.673Z,85.24
2022-07-29T01:59:27.741Z,85.24
2022-07-29T02:00:27.646Z,85.24
2022-07-29T02:01:27.702Z,85.13
2022-07-29T02:02:27.624Z,85.13
2022-07-29T02:03:27.605Z,85.03
2022-07-29T02:04:29.838Z,84.83
2022-07-29T02:05:27.730Z,84.32
2022-07-29T02:06:27.624Z,84.22
2022-07-29T02:07:27.559Z,84.28
2022-07-29T02:08:27.595Z,84.38
2022-07-29T02:09:27.551Z,84.48
2022-07-29T02:10:27.528Z,84.58
2022-07-29T02:11:27.599Z,84.58
2022-07-29T02:12:27.855Z,84.38
2022-07-29T02:13:27.532Z,84.28
2022-07-29T02:14:27.699Z,84.28
2022-07-29T02:15:27.468Z,84.38
2022-07-29T02:16:28.052Z,84.48
2022-07-29T02:17:27.524Z,84.78
2022-07-29T02:18:27.449Z,85.19
2022-07-29T02:19:27.425Z,85.39
2022-07-29T02:20:27.448Z,85.39
2022-07-29T02:21:27.440Z,85.39
2022-07-29T02:22:27.412Z,85.30
2022-07-29T02:23:27.434Z,85.39
2022-07-29T02:24:27.373Z,85.39
2022-07-29T02:25:37.083Z,85.50
2022-07-29T02:26:27.363Z,85.60
2022-07-29T02:27:27.349Z,85.50
2022-07-29T02:28:27.329Z,85.50
2022-07-29T02:29:27.452Z,85.39
2022-07-29T02:30:27.306Z,85.50
2022-07-29T02:31:27.357Z,85.60
2022-07-29T02:32:27.335Z,85.60
2022-07-29T02:33:27.330Z,85.70
2022-07-29T02:34:27.259Z,85.90
2022-07-29T02:35:27.306Z,85.90
2022-07-29T02:36:27.272Z,86.10
2022-07-29T02:37:27.226Z,86.10
2022-07-29T02:38:27.216Z,86.21
2022-07-29T02:39:27.202Z,86.21
2022-07-29T02:40:27.192Z,86.21
2022-07-29T02:41:27.231Z,86.41
2022-07-29T02:42:27.166Z,86.51
2022-07-29T02:43:27.922Z,86.71
2022-07-29T02:44:31.260Z,86.82
2022-07-29T02:45:27.198Z,86.91
2022-07-29T02:46:28.504Z,87.02
2022-07-29T02:47:27.192Z,86.91
2022-07-29T02:48:27.121Z,86.82
2022-07-29T02:49:27.154Z,86.61
2022-07-29T02:50:27.071Z,86.41
2022-07-29T02:51:43.587Z,86.31
2022-07-29T02:52:27.061Z,86.21
2022-07-29T02:53:27.090Z,86.10
2022-07-29T02:54:27.995Z,86.00
2022-07-29T02:55:27.023Z,86.00
2022-07-29T02:56:27.023Z,86.10
2022-07-29T02:57:27.034Z,86.15
2022-07-29T02:58:27.025Z,86.05
2022-07-29T02:59:27.456Z,86.15
2022-07-29T03:00:26.977Z,86.15
2022-07-29T03:01:27.062Z,86.15
2022-07-29T03:02:27.007Z,86.05
2022-07-29T03:03:26.923Z,86.05
2022-07-29T03:04:26.982Z,86.05
2022-07-29T03:05:26.935Z,86.05
2022-07-29T03:06:30.936Z,86.05
2022-07-29T03:07:26.908Z,86.15
2022-07-29T03:08:26.881Z,86.05
2022-07-29T03:09:27.924Z,86.05
2022-07-29T03:10:26.946Z,86.15
2022-07-29T03:11:40.160Z,86.25
2022-07-29T03:12:26.862Z,86.35
2022-07-29T03:13:26.900Z,86.45
2022-07-29T03:14:26.823Z,86.55
2022-07-29T03:15:26.857Z,86.55
2022-07-29T03:16:26.848Z,86.45
2022-07-29T03:17:26.816Z,86.45
2022-07-29T03:18:26.763Z,86.35
2022-07-29T03:19:26.807Z,86.25
2022-07-29T03:20:26.756Z,86.15
2022-07-29T03:21:26.741Z,86.25
2022-07-29T03:22:26.752Z,86.35
2022-07-29T03:23:26.763Z,86.29
2022-07-29T03:24:26.743Z,86.29
2022-07-29T03:25:26.678Z,86.29
2022-07-29T03:26:26.736Z,86.39
2022-07-29T03:27:26.669Z,86.39
2022-07-29T03:28:27.031Z,86.49
2022-07-29T03:29:33.846Z,86.39
2022-07-29T03:30:26.637Z,86.39
2022-07-29T03:31:26.683Z,86.29
2022-07-29T03:32:26.715Z,86.39
2022-07-29T03:33:26.589Z,86.29
2022-07-29T03:34:28.065Z,86.29
2022-07-29T03:35:27.476Z,86.29
2022-07-29T03:36:26.661Z,86.29
2022-07-29T03:37:26.560Z,86.29
2022-07-29T03:38:26.541Z,86.39
2022-07-29T03:39:26.527Z,86.29
2022-07-29T03:40:26.509Z,86.29
2022-07-29T03:41:26.613Z,86.19
2022-07-29T03:42:28.890Z,86.08
2022-07-29T03:43:26.472Z,86.08
2022-07-29T03:44:26.515Z,85.98
2022-07-29T03:45:26.445Z,85.98
2022-07-29T03:46:26.534Z,85.88
2022-07-29T03:47:49.516Z,85.88
2022-07-29T03:48:26.470Z,85.98
2022-07-29T03:49:26.564Z,85.98
2022-07-29T03:50:26.396Z,85.98
2022-07-29T03:51:33.939Z,85.98
2022-07-29T03:52:26.375Z,86.08
2022-07-29T03:53:26.454Z,86.19
2022-07-29T03:54:26.362Z,86.19
2022-07-29T03:55:26.331Z,86.39
2022-07-29T03:56:26.345Z,86.49
2022-07-29T03:57:26.304Z,86.59
2022-07-29T03:58:26.299Z,86.90
2022-07-29T03:59:26.335Z,87.00
2022-07-29T04:00:26.299Z,87.10
2022-07-29T04:01:26.341Z,86.96
2022-07-29T04:02:30.398Z,86.86
2022-07-29T04:03:26.302Z,86.86
2022-07-29T04:04:26.247Z,86.76
2022-07-29T04:05:26.301Z,86.65
2022-07-29T04:06:26.207Z,86.51
2022-07-29T04:07:26.290Z,86.31
2022-07-29T04:08:26.215Z,86.21
2022-07-29T04:09:26.192Z,86.10
2022-07-29T04:10:30.560Z,85.90
2022-07-29T04:11:26.420Z,85.60
2022-07-29T04:12:26.206Z,85.19
2022-07-29T04:13:26.200Z,85.19
2022-07-29T04:14:26.234Z,85.19
2022-07-29T04:15:26.378Z,85.30
2022-07-29T04:16:26.200Z,85.39
2022-07-29T04:17:26.283Z,85.05
2022-07-29T04:18:26.183Z,85.05
2022-07-29T04:19:26.352Z,85.05
2022-07-29T04:20:26.431Z,85.25
2022-07-29T04:21:26.281Z,85.56
2022-07-29T04:22:26.200Z,85.56
2022-07-29T04:23:26.213Z,85.56
2022-07-29T04:24:26.266Z,85.66
2022-07-29T04:25:26.350Z,85.66
2022-07-29T04:26:26.519Z,85.56
2022-07-29T04:27:26.942Z,85.46
2022-07-29T04:28:26.361Z,85.36
2022-07-29T04:29:26.323Z,85.25
2022-07-29T04:30:26.261Z,85.46
2022-07-29T04:31:26.265Z,85.56
2022-07-29T04:32:26.163Z,85.42
2022-07-29T04:33:26.293Z,85.62
2022-07-29T04:34:28.177Z,85.72
2022-07-29T04:35:26.522Z,85.82
2022-07-29T04:36:28.720Z,85.82
2022-07-29T04:37:26.059Z,85.82
2022-07-29T04:38:26.060Z,85.52
2022-07-29T04:39:29.576Z,85.52
2022-07-29T04:40:25.945Z,85.52
2022-07-29T04:41:33.268Z,85.52
2022-07-29T04:42:27.792Z,85.42
2022-07-29T04:43:26.225Z,85.21
2022-07-29T04:44:28.472Z,84.70
2022-07-29T04:45:25.928Z,84.50
2022-07-29T04:46:25.982Z,84.50
2022-07-29T04:47:25.950Z,84.20
2022-07-29T04:48:28.784Z,83.96
2022-07-29T04:49:26.200Z,83.35
2022-07-29T04:50:25.784Z,83.04
2022-07-29T04:51:26.129Z,82.64
2022-07-29T04:52:26.051Z,82.64
2022-07-29T04:53:26.250Z,82.54
2022-07-29T04:54:26.063Z,82.54
2022-07-29T04:55:25.961Z,82.64
2022-07-29T04:56:25.936Z,82.64
2022-07-29T04:57:25.904Z,82.84
2022-07-29T04:58:25.923Z,82.64
2022-07-29T04:59:25.663Z,82.24
2022-07-29T05:00:31.036Z,81.93
2022-07-29T05:01:25.766Z,81.32
2022-07-29T05:02:25.622Z,80.78
2022-07-29T05:03:25.559Z,80.68
2022-07-29T05:04:25.552Z,80.88
2022-07-29T05:05:25.595Z,80.88
2022-07-29T05:06:25.530Z,80.88
2022-07-29T05:07:25.541Z,80.68
2022-07-29T05:08:25.543Z,80.27
2022-07-29T05:09:25.511Z,80.27
2022-07-29T05:10:26.355Z,79.77
2022-07-29T05:11:30.230Z,79.06
2022-07-29T05:12:25.464Z,78.86
2022-07-29T05:13:25.454Z,78.86
2022-07-29T05:14:26.026Z,79.06
2022-07-29T05:15:25.476Z,79.57
2022-07-29T05:16:25.521Z,79.97
2022-07-29T05:17:25.433Z,80.04
2022-07-29T05:18:26.193Z,79.83
2022-07-29T05:19:25.380Z,79.63
2022-07-29T05:20:25.375Z,79.22
2022-07-29T05:21:25.379Z,79.02
2022-07-29T05:22:25.343Z,79.13
2022-07-29T05:23:25.390Z,79.33
2022-07-29T05:24:25.331Z,79.63
2022-07-29T05:25:25.331Z,79.63
2022-07-29T05:26:25.305Z,79.63
2022-07-29T05:27:25.308Z,79.53
2022-07-29T05:28:25.324Z,78.88
2022-07-29T05:29:44.390Z,78.48
2022-07-29T05:31:35.899Z,78.78
2022-07-29T05:32:36.876Z,78.88
2022-07-29T05:33:37.250Z,78.88
2022-07-29T05:34:36.918Z,78.78
2022-07-29T05:35:36.847Z,77.77
2022-07-29T05:36:36.835Z,77.17
2022-07-29T05:37:36.816Z,77.37
2022-07-29T05:38:37.015Z,77.26
2022-07-29T05:39:48.934Z,77.26
2022-07-29T05:40:36.859Z,77.47
2022-07-29T05:41:37.035Z,77.57
2022-07-29T05:42:36.759Z,77.53
2022-07-29T05:43:36.753Z,77.84
2022-07-29T05:44:37.390Z,77.33
2022-07-29T05:45:49.719Z,77.23
2022-07-29T05:46:36.828Z,76.72
2022-07-29T05:47:36.697Z,77.13
2022-07-29T05:48:36.744Z,76.93
2022-07-29T05:49:36.741Z,76.52
2022-07-29T05:50:36.660Z,76.52
2022-07-29T05:51:36.666Z,76.42
2022-07-29T05:52:36.690Z,75.92
2022-07-29T05:53:36.648Z,76.32
2022-07-29T05:54:36.629Z,75.92
2022-07-29T05:55:36.637Z,76.12
2022-07-29T05:56:36.621Z,75.98
2022-07-29T05:57:36.599Z,76.18
2022-07-29T05:58:36.638Z,76.28
2022-07-29T05:59:36.589Z,75.68
2022-07-29T06:00:36.728Z,76.08
2022-07-29T06:01:36.583Z,76.18
2022-07-29T06:02:36.550Z,76.08
2022-07-29T06:03:36.518Z,76.48
2022-07-29T06:04:36.617Z,76.08
2022-07-29T06:05:37.036Z,76.28
2022-07-29T06:06:36.488Z,76.28
2022-07-29T06:07:36.510Z,76.18
2022-07-29T06:08:36.467Z,76.48
2022-07-29T06:09:36.569Z,76.08
2022-07-29T06:10:36.474Z,75.98
2022-07-29T06:11:36.456Z,76.35
2022-07-29T06:12:36.424Z,76.25
2022-07-29T06:13:36.415Z,75.95
2022-07-29T06:14:36.391Z,76.35
2022-07-29T06:15:36.431Z,76.15
2022-07-29T06:16:36.473Z,75.78
2022-07-29T06:17:36.365Z,75.95
2022-07-29T06:18:36.360Z,75.98
2022-07-29T06:19:36.357Z,76.45
2022-07-29T06:20:36.330Z,76.55
2022-07-29T06:21:36.323Z,76.65
2022-07-29T06:22:36.347Z,76.65
2022-07-29T06:23:36.297Z,76.95
2022-07-29T06:24:36.304Z,76.75
2022-07-29T06:25:36.307Z,77.15
2022-07-29T06:26:39.622Z,76.95
2022-07-29T06:27:36.248Z,77.15
2022-07-29T06:28:36.281Z,77.15
2022-07-29T06:29:36.261Z,76.86
2022-07-29T06:30:36.359Z,76.75
2022-07-29T06:31:37.885Z,77.06
2022-07-29T06:32:40.037Z,76.86
2022-07-29T06:33:36.193Z,76.95
2022-07-29T06:34:36.278Z,77.46
2022-07-29T06:35:41.413Z,77.46
2022-07-29T06:36:37.727Z,77.26
2022-07-29T06:37:36.882Z,77.15
2022-07-29T06:38:40.385Z,76.92
2022-07-29T06:39:36.131Z,76.51
2022-07-29T06:40:36.935Z,76.35
2022-07-29T06:41:36.117Z,76.55
2022-07-29T06:42:36.089Z,76.35
2022-07-29T06:43:36.117Z,76.55
2022-07-29T06:44:36.240Z,76.75
2022-07-29T06:45:36.063Z,76.75
2022-07-29T06:46:36.850Z,76.95
2022-07-29T06:47:36.075Z,77.15
2022-07-29T06:48:36.087Z,76.95
2022-07-29T06:49:36.003Z,76.82
2022-07-29T06:50:36.096Z,76.62
2022-07-29T06:51:35.986Z,76.62
2022-07-29T06:52:36.196Z,76.92
2022-07-29T06:53:35.986Z,76.82
2022-07-29T06:54:36.132Z,76.92
2022-07-29T06:55:35.952Z,76.31
2022-07-29T06:56:38.305Z,76.21
2022-07-29T06:57:35.917Z,76.72
2022-07-29T06:58:36.807Z,76.51
2022-07-29T06:59:36.221Z,76.62
2022-07-29T07:00:36.191Z,76.92
2022-07-29T07:01:36.012Z,77.02
2022-07-29T07:02:35.929Z,76.72
2022-07-29T07:03:35.847Z,76.98
2022-07-29T07:04:35.866Z,76.78
2022-07-29T07:05:35.842Z,76.98
2022-07-29T07:06:35.807Z,76.24
2022-07-29T07:07:35.807Z,76.24
2022-07-29T07:08:35.794Z,76.54
2022-07-29T07:09:40.594Z,76.64
2022-07-29T07:10:35.832Z,75.20
2022-07-29T07:11:35.809Z,74.99
2022-07-29T07:12:35.749Z,75.50
2022-07-29T07:13:36.691Z,75.50
2022-07-29T07:14:35.727Z,75.30
2022-07-29T07:15:39.882Z,74.79
2022-07-29T07:16:35.909Z,74.99
2022-07-29T07:17:35.705Z,75.80
2022-07-29T07:18:35.671Z,75.76
2022-07-29T07:19:35.658Z,75.16
2022-07-29T07:20:35.654Z,75.26
2022-07-29T07:21:36.116Z,74.05
2022-07-29T07:22:38.745Z,73.55
2022-07-29T07:23:35.924Z,73.85
2022-07-29T07:24:35.647Z,74.05
2022-07-29T07:25:35.591Z,74.26
2022-07-29T07:26:35.605Z,74.05
2022-07-29T07:27:35.572Z,74.35
2022-07-29T07:28:35.637Z,74.05
2022-07-29T07:29:35.576Z,74.46
2022-07-29T07:30:35.535Z,74.93
2022-07-29T07:31:36.712Z,74.52
2022-07-29T07:32:35.743Z,74.12
2022-07-29T07:33:35.807Z,73.41
2022-07-29T07:34:35.854Z,73.61
2022-07-29T07:35:35.758Z,73.72
2022-07-29T07:36:35.664Z,74.08
2022-07-29T07:37:35.812Z,73.48
2022-07-29T07:38:35.642Z,73.38
2022-07-29T07:39:35.699Z,73.48
2022-07-29T07:40:35.534Z,73.68
2022-07-29T07:41:35.761Z,73.28
2022-07-29T07:42:35.454Z,73.88
2022-07-29T07:43:35.474Z,74.15
2022-07-29T07:44:51.274Z,73.24
2022-07-29T07:45:35.608Z,72.84
2022-07-29T07:46:35.626Z,72.54
2022-07-29T07:47:35.748Z,72.94
2022-07-29T07:48:35.792Z,72.57
2022-07-29T07:49:36.090Z,73.24
2022-07-29T07:50:35.663Z,72.97
2022-07-29T07:51:36.534Z,73.18
2022-07-29T07:52:35.421Z,73.38
2022-07-29T07:53:35.568Z,73.68
2022-07-29T07:54:35.350Z,73.82
2022-07-29T07:56:00.444Z,73.52
2022-07-29T07:56:35.652Z,74.12
2022-07-29T07:57:36.115Z,74.52
2022-07-29T07:58:35.328Z,74.02
2022-07-29T07:59:35.318Z,73.61
2022-07-29T08:00:35.554Z,74.22
2022-07-29T08:01:55.035Z,74.52
2022-07-29T08:02:35.303Z,74.93
2022-07-29T08:03:35.250Z,74.93
2022-07-29T08:04:35.610Z,74.32
2022-07-29T08:05:35.469Z,73.92
2022-07-29T08:06:35.689Z,74.22
2022-07-29T08:07:35.362Z,74.62
2022-07-29T08:08:35.121Z,74.82
2022-07-29T08:09:35.382Z,74.52
2022-07-29T08:10:35.300Z,74.52
2022-07-29T08:11:35.247Z,74.52
2022-07-29T08:12:35.340Z,75.06
2022-07-29T08:13:35.419Z,74.76
2022-07-29T08:14:35.421Z,75.06
2022-07-29T08:15:35.112Z,74.86
2022-07-29T08:16:35.674Z,74.86
2022-07-29T08:17:35.293Z,75.16
2022-07-29T08:18:35.143Z,75.06
2022-07-29T08:19:35.106Z,75.16
2022-07-29T08:20:35.167Z,74.86
2022-07-29T08:21:35.460Z,74.96
2022-07-29T08:22:35.307Z,75.56
2022-07-29T08:23:46.011Z,75.46
2022-07-29T08:24:35.451Z,75.53
2022-07-29T08:25:40.096Z,75.83
2022-07-29T08:26:35.103Z,75.53
2022-07-29T08:27:43.333Z,74.79
2022-07-29T08:28:34.980Z,75.19
2022-07-29T08:29:35.194Z,74.58
2022-07-29T08:30:35.067Z,74.89
2022-07-29T08:31:35.152Z,74.89
2022-07-29T08:32:53.137Z,74.38
2022-07-29T08:33:35.277Z,74.69
2022-07-29T08:34:34.910Z,74.69
2022-07-29T08:35:35.722Z,74.38
2022-07-29T08:36:35.026Z,74.29
2022-07-29T08:37:34.983Z,74.18
2022-07-29T08:38:34.838Z,74.79
2022-07-29T08:39:34.805Z,74.69
2022-07-29T08:40:35.258Z,73.58
2022-07-29T08:41:34.800Z,74.18
2022-07-29T08:42:35.053Z,74.38
2022-07-29T08:43:35.157Z,74.29
2022-07-29T08:44:34.907Z,75.05
2022-07-29T08:45:34.910Z,74.85
2022-07-29T08:46:35.294Z,73.91
2022-07-29T08:47:35.008Z,73.81
2022-07-29T08:48:35.169Z,74.18
2022-07-29T08:49:34.996Z,73.78
2022-07-29T08:50:34.798Z,73.68
2022-07-29T08:51:35.007Z,73.98
2022-07-29T08:52:35.049Z,73.18
2022-07-29T08:53:35.225Z,73.38
2022-07-29T08:54:35.201Z,73.07
2022-07-29T08:55:34.801Z,72.67
2022-07-29T08:56:34.903Z,73.88
2022-07-29T08:57:34.760Z,73.88
2022-07-29T08:58:36.727Z,73.27
2022-07-29T08:59:34.943Z,72.64
2022-07-29T09:00:34.965Z,72.53
2022-07-29T09:01:35.001Z,72.33
2022-07-29T09:02:34.701Z,72.40
2022-07-29T09:03:34.868Z,72.30
2022-07-29T09:04:34.959Z,72.10
2022-07-29T09:05:40.147Z,71.70
2022-07-29T09:06:34.734Z,71.20
2022-07-29T09:07:34.969Z,71.80
2022-07-29T09:08:34.648Z,72.40
2022-07-29T09:09:41.757Z,71.90
2022-07-29T09:10:34.829Z,72.10
2022-07-29T09:11:34.844Z,73.61
2022-07-29T09:12:37.965Z,72.37
2022-07-29T09:13:34.606Z,71.56
2022-07-29T09:14:34.947Z,70.96
2022-07-29T09:15:34.653Z,70.86
2022-07-29T09:16:52.260Z,70.86
2022-07-29T09:17:34.876Z,70.86
2022-07-29T09:18:34.647Z,72.27
2022-07-29T09:19:34.622Z,71.56
2022-07-29T09:20:34.516Z,71.86
2022-07-29T09:21:34.290Z,71.23
2022-07-29T09:22:38.805Z,71.53
2022-07-29T09:23:34.282Z,70.53
2022-07-29T09:24:34.528Z,70.89
2022-07-29T09:25:34.303Z,69.79
2022-07-29T09:26:34.420Z,69.69
2022-07-29T09:27:34.336Z,69.79
2022-07-29T09:28:34.516Z,69.69
2022-07-29T09:29:36.268Z,70.50
2022-07-29T09:30:34.606Z,69.79
2022-07-29T09:31:34.541Z,70.32
2022-07-29T09:32:34.321Z,69.69
2022-07-29T09:33:34.447Z,69.53
2022-07-29T09:34:34.467Z,70.32
2022-07-29T09:35:34.490Z,69.62
2022-07-29T09:36:34.618Z,71.33
2022-07-29T09:37:34.202Z,69.92
2022-07-29T09:38:34.139Z,70.23
2022-07-29T09:39:34.441Z,70.73
2022-07-29T09:40:34.484Z,70.43
2022-07-29T09:41:35.028Z,70.83
2022-07-29T09:42:34.690Z,70.69
2022-07-29T09:43:34.527Z,70.29
2022-07-29T09:44:34.251Z,70.19
2022-07-29T09:45:34.505Z,71.90
2022-07-29T09:46:34.490Z,71.66
2022-07-29T09:47:34.244Z,70.12
2022-07-29T09:48:34.158Z,69.82
2022-07-29T09:49:34.119Z,69.82
2022-07-29T09:50:34.332Z,69.29
2022-07-29T09:51:38.193Z,68.29
2022-07-29T09:52:33.987Z,67.96
2022-07-29T09:53:34.074Z,69.62
2022-07-29T09:54:34.095Z,68.79
2022-07-29T09:55:34.169Z,66.79
2022-07-29T09:56:33.930Z,66.69
2022-07-29T09:57:34.301Z,68.39
2022-07-29T09:58:34.379Z,66.56
2022-07-29T09:59:34.299Z,66.96
2022-07-29T10:00:34.389Z,64.66
2022-07-29T10:01:34.065Z,66.16
2022-07-29T10:02:34.194Z,66.73
2022-07-29T10:03:34.185Z,66.39
2022-07-29T10:04:34.325Z,64.90
2022-07-29T10:05:36.529Z,64.50
2022-07-29T10:06:33.963Z,64.60
2022-07-29T10:07:34.163Z,66.36
2022-07-29T10:08:34.220Z,66.86
2022-07-29T10:09:34.216Z,65.86
2022-07-29T10:10:34.476Z,65.09
2022-07-29T10:11:36.524Z,65.99
2022-07-29T10:12:34.045Z,66.19
2022-07-29T10:13:34.160Z,67.93
2022-07-29T10:14:34.072Z,66.82
2022-07-29T10:15:34.042Z,66.49
2022-07-29T10:16:34.174Z,66.69
2022-07-29T10:17:33.639Z,67.49
2022-07-29T10:18:33.663Z,67.79
2022-07-29T10:19:33.653Z,66.89
2022-07-29T10:20:33.633Z,66.79
2022-07-29T10:21:35.673Z,66.66
2022-07-29T10:22:52.545Z,66.19
2022-07-29T10:23:46.801Z,67.09
2022-07-29T10:24:33.623Z,67.22
2022-07-29T10:25:33.555Z,67.72
2022-07-29T10:26:33.558Z,68.52
2022-07-29T10:27:33.532Z,68.43
2022-07-29T10:28:33.610Z,67.52
2022-07-29T10:29:33.524Z,67.59
2022-07-29T10:30:33.579Z,67.40
2022-07-29T10:31:33.723Z,66.69
2022-07-29T10:32:33.543Z,67.29
2022-07-29T10:33:33.495Z,67.29
2022-07-29T10:34:33.694Z,67.19
2022-07-29T10:35:33.452Z,67.69
2022-07-29T10:36:33.509Z,67.19
2022-07-29T10:37:35.526Z,67.49
2022-07-29T10:38:33.423Z,67.59
2022-07-29T10:39:34.369Z,67.72
2022-07-29T10:40:33.441Z,68.13
2022-07-29T10:41:44.022Z,67.99
2022-07-29T10:42:34.492Z,67.40
2022-07-29T10:43:33.363Z,67.59
2022-07-29T10:44:33.392Z,68.09
2022-07-29T10:45:33.363Z,67.36
2022-07-29T10:46:33.470Z,67.40
2022-07-29T10:47:35.264Z,66.99
2022-07-29T10:48:33.371Z,67.99
2022-07-29T10:49:33.335Z,68.36
2022-07-29T10:50:33.346Z,67.76
2022-07-29T10:51:33.369Z,67.26
2022-07-29T10:52:33.437Z,67.66
2022-07-29T10:53:33.890Z,67.13
2022-07-29T10:54:33.237Z,67.03
2022-07-29T10:55:33.246Z,67.03
2022-07-29T10:56:33.219Z,66.20
2022-07-29T10:57:53.284Z,66.70
2022-07-29T10:58:33.905Z,65.40
2022-07-29T10:59:36.343Z,65.70
2022-07-29T11:00:33.217Z,66.00
2022-07-29T11:01:37.289Z,65.03
2022-07-29T11:02:42.250Z,65.53
2022-07-29T11:03:33.220Z,66.13
2022-07-29T11:04:33.255Z,65.96
2022-07-29T11:05:40.704Z,66.16
2022-07-29T11:06:33.168Z,67.16
2022-07-29T11:07:46.087Z,67.06
2022-07-29T11:08:33.079Z,66.46
2022-07-29T11:09:37.525Z,66.23
2022-07-29T11:10:33.119Z,65.73
2022-07-29T11:11:33.059Z,65.33
2022-07-29T11:12:33.113Z,65.53
2022-07-29T11:13:33.048Z,65.90
2022-07-29T11:14:33.026Z,64.90
2022-07-29T11:15:33.012Z,64.37
2022-07-29T11:16:33.029Z,63.97
2022-07-29T11:17:47.048Z,63.17
2022-07-29T11:18:33.016Z,63.37
2022-07-29T11:19:32.944Z,63.47
2022-07-29T11:20:32.978Z,63.97
2022-07-29T11:21:35.971Z,63.77
2022-07-29T11:22:32.984Z,62.94
2022-07-29T11:23:34.019Z,62.84
2022-07-29T11:24:32.914Z,63.61
2022-07-29T11:25:51.029Z,62.91
2022-07-29T11:26:32.996Z,63.51
2022-07-29T11:27:32.870Z,62.68
2022-07-29T11:28:32.928Z,62.88
2022-07-29T11:29:32.844Z,62.55
2022-07-29T11:30:32.828Z,62.26
2022-07-29T11:31:32.816Z,62.55
2022-07-29T11:32:32.827Z,62.45
2022-07-29T12:07:01.472Z,61.76
2022-07-29T12:07:15.539Z,59.65
2022-07-29T12:08:14.760Z,58.09
2022-07-29T12:09:14.738Z,59.58
2022-07-29T12:10:20.131Z,60.57
2022-07-29T12:11:12.708Z,61.74
2022-07-29T12:12:12.769Z,59.55
2022-07-29T12:13:12.696Z,59.88
2022-07-29T12:14:12.681Z,59.58
2022-07-29T12:15:12.660Z,60.87
2022-07-29T12:16:14.786Z,61.27
2022-07-29T12:17:12.641Z,61.07
2022-07-29T12:18:13.000Z,60.97
2022-07-29T12:19:12.791Z,60.40
2022-07-29T12:20:12.607Z,61.10
2022-07-29T12:21:12.665Z,62.76
2022-07-29T12:22:12.675Z,61.77
2022-07-29T12:23:12.622Z,60.57
2022-07-29T12:24:12.648Z,60.68
2022-07-29T12:26:25.432Z,60.80
2022-07-29T12:27:12.720Z,60.90
2022-07-29T12:28:14.101Z,60.60
2022-07-29T12:29:20.368Z,60.11
2022-07-29T12:30:12.506Z,61.40
2022-07-29T12:31:12.655Z,61.90
2022-07-29T12:32:15.000Z,62.10
2022-07-29T12:33:12.499Z,60.77
2022-07-29T12:34:12.455Z,61.57
2022-07-29T12:35:12.520Z,60.94
2022-07-29T12:36:17.314Z,60.31
2022-07-29T12:37:12.472Z,60.16
2022-07-29T12:38:12.562Z,58.34
2022-07-29T12:39:12.446Z,58.72
2022-07-29T12:40:12.395Z,57.07
2022-07-29T12:41:12.436Z,56.13
2022-07-29T12:42:14.801Z,54.91
2022-07-29T12:43:12.351Z,55.05
2022-07-29T12:44:12.346Z,52.69
2022-07-29T12:45:12.389Z,54.44
2022-07-29T12:46:12.439Z,53.03
2022-07-29T12:47:12.441Z,52.75
2022-07-29T12:48:12.381Z,51.05
2022-07-29T12:49:12.369Z,50.63
2022-07-29T12:50:12.315Z,49.33
2022-07-29T12:51:12.276Z,50.21
2022-07-29T12:52:12.404Z,49.92
2022-07-29T12:53:12.325Z,50.83
2022-07-29T12:54:12.280Z,50.34
2022-07-29T12:55:12.235Z,50.29
2022-07-29T12:56:33.284Z,51.40
2022-07-29T12:57:20.326Z,51.54
2022-07-29T12:58:12.309Z,52.17
2022-07-29T12:59:12.312Z,53.30
2022-07-29T13:00:12.237Z,54.32
2022-07-29T13:01:17.275Z,54.71
2022-07-29T13:02:12.208Z,53.97
2022-07-29T13:03:12.341Z,53.03
2022-07-29T13:04:12.271Z,52.04
2022-07-29T13:05:12.187Z,51.67
2022-07-29T13:06:12.157Z,49.62
2022-07-29T13:07:12.137Z,48.99
2022-07-29T13:08:20.099Z,47.15
2022-07-29T13:09:12.110Z,46.04
2022-07-29T13:10:12.119Z,46.83
2022-07-29T13:11:12.141Z,46.53
2022-07-29T13:12:12.069Z,44.82
2022-07-29T13:13:12.293Z,45.12
2022-07-29T13:14:12.036Z,44.60
2022-07-29T13:15:12.038Z,44.02
2022-07-29T13:16:12.047Z,43.62
2022-07-29T13:17:12.087Z,43.21
2022-07-29T13:18:14.547Z,43.48
2022-07-29T13:19:12.001Z,44.07
2022-07-29T13:20:11.973Z,44.41
2022-07-29T13:21:11.966Z,44.60
2022-07-29T13:22:11.944Z,43.31
2022-07-29T13:23:12.010Z,43.05
2022-07-29T13:24:12.731Z,42.55
2022-07-29T13:25:11.932Z,42.91
2022-07-29T13:26:12.103Z,42.62
2022-07-29T13:27:11.907Z,43.33